Latest Weather Observations for Wulungurru (Kintore)

IDD60801

Issued at 7:35 pm CST Thursday 21 August 2014 (issued every 30 minutes, with the page automatically refreshed every 10 minutes)

About weather observations | Map of weather stations | Latest weather observations for NT | Other Formats
Station Details ID: 015664 Name: WALUNGURRU AIRPORT Lat: -23.27 Lon: 129.38 Height: 454.3 m
Data from the previous 72 hours. | See also: Recent months at Wulungurru (Kintore)
Date/Time
CST
Temp
°C
App
Temp
°C
Dew
Point
Rel
Hum
%
Delta-T
°C
Wind Press
QNH
hPa
Press
MSL
hPa
Rain
since 9 am
mm
Dir
 
Spd
km/h
Gust
km/h
Spd
kts
Gust
kts
21/07:30pm 17.9 14.2 -4.1 22 9.0 E 6 7 3 4 1019.6 - 0.0
21/07:00pm 19.9 15.9 -5.8 17 10.3 NE 7 9 4 5 1019.1 - 0.0
21/06:30pm 23.0 18.1 -6.9 13 12.1 NE 11 13 6 7 1018.9 - 0.0
21/06:00pm 24.6 20.1 -6.7 12 12.9 NNE 9 13 5 7 1018.5 1017.9 0.0
21/05:30pm 25.2 20.0 -6.2 12 13.2 NE 13 20 7 11 1018.3 - 0.0
21/05:00pm 25.7 21.2 -6.9 11 13.6 NNE 9 17 5 9 1018.0 - 0.0
21/04:30pm 25.8 20.0 -8.1 10 13.8 SE 15 22 8 12 1017.9 - 0.0
21/04:00pm 26.3 21.7 -7.7 10 14.0 ENE 9 15 5 8 1017.9 - 0.0
21/03:30pm 25.8 20.2 -6.9 11 13.6 SSE 15 28 8 15 1017.9 - 0.0
21/03:00pm 26.0 20.4 -6.7 11 13.7 NNE 15 20 8 11 1018.0 1017.3 0.0
21/02:30pm 25.6 20.3 -7.0 11 13.6 E 13 19 7 10 1018.4 - 0.0
21/02:00pm 25.5 21.1 -6.0 12 13.3 NNE 9 19 5 10 1018.9 - 0.0
21/01:30pm 25.0 20.7 -5.3 13 12.9 WNW 9 13 5 7 1019.3 - 0.0
21/01:00pm 24.8 19.8 -4.5 14 12.7 N 13 20 7 11 1019.7 - 0.0
21/12:30pm 24.3 18.9 -4.9 14 12.5 NNE 15 22 8 12 1020.4 - 0.0
21/12:00pm 23.5 17.4 -3.7 16 11.8 NNE 19 24 10 13 1020.7 1020.1 0.0
21/11:30am 22.7 16.4 -4.4 16 11.5 NNE 20 30 11 16 1021.2 - 0.0
21/11:00am 22.1 15.5 -3.3 18 11.0 NNE 22 30 12 16 1021.5 - 0.0
21/10:30am 20.8 13.8 -3.6 19 10.4 NE 24 32 13 17 1021.6 - 0.0
21/10:00am 19.1 11.7 -3.7 21 9.5 NE 26 33 14 18 1021.6 - 0.0
21/09:30am 17.2 10.2 -3.5 24 8.5 NE 24 33 13 18 1021.6 - 0.0
21/09:00am 15.0 8.0 -3.3 28 7.4 ENE 24 30 13 16 1021.6 1020.9 0.0
21/08:30am 13.2 6.1 -4.0 30 6.7 ENE 24 30 13 16 1021.4 - 0.0
21/08:00am 12.7 5.6 -4.0 31 6.5 ENE 24 32 13 17 1021.2 - 0.0
21/07:30am 12.1 5.0 -4.1 32 6.2 ENE 24 30 13 16 1020.7 - 0.0
21/07:00am 12.1 5.4 -4.1 32 6.2 ENE 22 30 12 16 1020.4 - 0.0
21/06:30am 12.0 5.3 -4.2 32 6.2 ENE 22 30 12 16 1020.1 - 0.0
21/06:00am 12.4 4.9 -4.7 30 6.5 ENE 26 33 14 18 1019.9 1019.2 0.0
21/05:30am 13.0 5.9 -4.6 29 6.8 ENE 24 32 13 17 1019.7 - 0.0
21/05:00am 13.4 6.6 -4.7 28 7.0 ENE 22 30 12 16 1019.6 - 0.0
21/04:30am 11.2 7.5 -4.9 32 6.0 SE 6 13 3 7 1019.3 - 0.0
21/04:00am 12.5 8.2 -5.0 29 6.6 SSE 9 13 5 7 1019.4 - 0.0
21/03:30am 14.2 10.3 -4.5 27 7.3 SSE 7 11 4 6 1019.4 - 0.0
21/03:00am 13.7 9.4 -4.9 27 7.1 S 9 13 5 7 1019.4 1018.7 0.0
21/02:30am 14.6 10.3 -4.7 26 7.5 SE 9 13 5 7 1019.5 - 0.0
21/02:00am 13.7 9.5 -4.0 29 6.9 ESE 9 13 5 7 1019.7 - 0.0
21/01:30am 11.4 7.2 -4.3 33 6.0 E 9 13 5 7 1019.7 - 0.0
21/01:00am 12.6 8.4 -3.6 32 6.3 S 9 11 5 6 1019.9 - 0.0
21/12:30am 11.9 8.6 -4.2 32 6.2 ESE 4 9 2 5 1019.9 - 0.0
21/12:00am 13.7 9.1 -4.5 28 7.0 SSE 11 15 6 8 1020.0 1019.3 0.0
 
Date/Time
CST
Temp
°C
App
Temp
°C
Dew
Point
Rel
Hum
%
Delta-T
°C
Wind Press
QNH
hPa
Press
MSL
hPa
Rain
since 9 am
mm
Dir
 
Spd
km/h
Gust
km/h
Spd
kts
Gust
kts
20/11:30pm 15.2 9.8 -4.2 26 7.7 SSE 15 17 8 9 1020.2 - 0.0
20/11:00pm 14.9 9.2 -3.4 28 7.4 SSE 17 19 9 10 1020.4 - 0.0
20/10:30pm 13.0 8.1 -3.7 31 6.5 SSE 13 13 7 7 1020.4 - 0.0
20/10:00pm 13.2 8.3 -3.5 31 6.6 SSE 13 17 7 9 1020.3 - 0.0
20/09:30pm 13.6 8.7 -3.6 30 6.8 SSE 13 15 7 8 1020.1 - 0.0
20/09:00pm 14.3 9.8 -3.5 29 7.1 SE 11 13 6 7 1019.9 1019.2 0.0
20/08:30pm 14.8 11.7 -3.0 29 7.2 ENE 4 9 2 5 1019.6 - 0.0
20/08:00pm 15.6 13.1 -4.3 25 7.9 CALM 0 0 0 0 1019.2 - 0.0
20/07:30pm 18.2 15.6 -4.5 21 9.2 CALM 0 0 0 0 1018.6 - 0.0
20/07:00pm 19.1 16.5 -5.0 19 9.8 CALM 0 4 0 2 1018.3 - 0.0
20/06:30pm 22.1 18.3 -5.7 15 11.5 E 6 11 3 6 1018.0 - 0.0
20/06:00pm 23.4 19.4 -5.6 14 12.1 ESE 7 9 4 5 1017.7 1017.0 0.0
20/05:30pm 24.1 20.6 -6.0 13 12.6 NNW 4 9 2 5 1017.5 - 0.0
20/05:00pm 24.3 19.9 -5.8 13 12.6 NNE 9 19 5 10 1017.5 - 0.0
20/04:30pm 24.4 20.4 -5.8 13 12.7 S 7 17 4 9 1017.6 - 0.0
20/04:00pm 24.9 20.2 -5.4 13 12.9 SSW 11 35 6 19 1017.6 - 0.0
20/03:30pm 24.8 20.4 -5.5 13 12.9 E 9 15 5 8 1017.7 - 0.0
20/03:00pm 24.5 18.6 -5.7 13 12.7 N 17 24 9 13 1017.8 1017.1 0.0
20/02:30pm 24.0 20.1 -5.1 14 12.4 WSW 7 19 4 10 1018.2 - 0.0
20/02:00pm 23.8 19.5 -4.4 15 12.1 NE 9 15 5 8 1018.5 - 0.0
20/01:30pm 23.4 18.4 -4.7 15 12.0 NNE 13 28 7 15 1019.2 - 0.0
20/01:00pm 23.7 19.5 -3.6 16 11.9 E 9 19 5 10 1019.9 - 0.0
20/12:30pm 23.0 18.5 -3.3 17 11.5 ENE 11 19 6 10 1020.5 - 0.0
20/12:00pm 22.4 16.8 -3.1 18 11.1 NE 17 22 9 12 1020.9 1020.3 0.0
20/11:30am 21.2 15.3 -2.6 20 10.3 NE 19 26 10 14 1021.4 - 0.0
20/11:00am 20.7 14.7 -1.8 22 9.9 ENE 20 26 11 14 1021.7 - 0.0
20/10:30am 19.1 12.3 -1.9 24 9.1 NE 24 32 13 17 1021.8 - 0.0
20/10:00am 17.6 10.4 -2.1 26 8.4 ENE 26 32 14 17 1021.7 - 0.0
20/09:30am 16.4 8.8 -2.1 28 7.8 ENE 28 35 15 19 1021.4 - 0.0
20/09:00am 14.5 6.9 -2.0 32 6.8 ENE 28 35 15 19 1021.0 1020.4 0.0
20/08:30am 13.2 5.2 -2.3 34 6.3 ENE 30 37 16 20 1020.6 - 0.0
20/08:00am 12.3 5.0 -3.1 34 6.1 ENE 26 35 14 19 1020.4 - 0.0
20/07:30am 12.2 5.2 -3.6 33 6.2 ENE 24 30 13 16 1020.1 - 0.0
20/07:00am 11.8 5.1 -3.9 33 6.0 ENE 22 30 12 16 1019.8 - 0.0
20/06:30am 12.4 5.3 -4.2 31 6.4 ENE 24 33 13 18 1019.7 - 0.0
20/06:00am 13.9 8.5 -4.8 27 7.2 E 15 20 8 11 1019.4 1018.7 0.0
20/05:30am 14.2 8.4 -5.0 26 7.4 ENE 17 24 9 13 1019.1 - 0.0
20/05:00am 14.8 9.4 -4.5 26 7.6 E 15 24 8 13 1018.9 - 0.0
20/04:30am 14.9 9.1 -4.9 25 7.7 E 17 24 9 13 1019.0 - 0.0
20/04:00am 14.6 9.6 -4.2 27 7.4 E 13 26 7 14 1019.1 - 0.0
20/03:30am 13.9 10.0 -4.3 28 7.1 SE 7 13 4 7 1019.1 - 0.0
20/03:00am 12.3 6.9 -4.8 30 6.5 SE 15 24 8 13 1019.2 1018.5 0.0
20/02:30am 12.1 7.9 -4.1 32 6.2 ESE 9 11 5 6 1019.4 - 0.0
20/02:00am 10.5 5.9 -3.9 36 5.5 SE 11 13 6 7 1019.4 - 0.0
20/01:30am 9.4 4.8 -3.8 39 5.0 SE 11 11 6 6 1019.7 - 0.0
20/01:00am 10.5 5.5 -4.3 35 5.6 SSE 13 15 7 8 1020.1 - 0.0
20/12:30am 10.7 5.8 -3.7 36 5.5 SSE 13 15 7 8 1020.2 - 0.0
20/12:00am 10.4 6.3 -3.3 38 5.2 SSE 9 13 5 7 1020.3 1019.7 0.0
 
Date/Time
CST
Temp
°C
App
Temp
°C
Dew
Point
Rel
Hum
%
Delta-T
°C
Wind Press
QNH
hPa
Press
MSL
hPa
Rain
since 9 am
mm
Dir
 
Spd
km/h
Gust
km/h
Spd
kts
Gust
kts
19/11:30pm 10.9 7.4 -2.8 38 5.4 S 6 7 3 4 1020.4 - 0.0
19/11:00pm 12.2 8.1 -2.8 35 5.9 WNW 9 11 5 6 1020.6 - 0.0
19/10:30pm 13.2 8.3 -3.5 31 6.6 SSE 13 15 7 8 1020.3 - 0.0
19/10:00pm 12.8 7.8 -3.9 31 6.5 SSE 13 15 7 8 1020.3 - 0.0
19/09:30pm 13.0 8.8 -4.1 30 6.6 SSE 9 11 5 6 1020.2 - 0.0
19/09:00pm 14.0 9.4 -3.7 29 7.0 SE 11 15 6 8 1020.0 1019.3 0.0
19/08:30pm 14.2 9.7 -3.1 30 7.0 SSE 11 13 6 7 1019.7 - 0.0
19/08:00pm 15.2 11.0 -3.6 27 7.6 SSE 9 11 5 6 1019.5 - 0.0
19/07:30pm 16.8 13.0 -3.9 24 8.4 SSW 7 9 4 5 1019.1 - 0.0
19/07:00pm 18.3 14.6 -5.0 20 9.4 W 6 7 3 4 1018.8 - 0.0
19/06:30pm 21.5 18.9 -4.5 17 10.9 CALM 0 6 0 3 1018.5 - 0.0
19/06:00pm 22.2 17.9 -4.8 16 11.3 WNW 9 13 5 7 1018.3 1017.7 0.0
19/05:30pm 22.9 18.6 -5.1 15 11.8 N 9 13 5 7 1018.2 - 0.0
19/05:00pm 23.4 19.1 -4.7 15 12.0 NW 9 15 5 8 1018.3 - 0.0
19/04:30pm 23.2 19.3 -4.8 15 11.9 NW 7 15 4 8 1018.3 - 0.0
19/04:00pm 23.0 18.8 -4.1 16 11.6 W 9 20 5 11 1018.3 - 0.0
19/03:30pm 23.2 19.0 -4.0 16 11.7 WNW 9 17 5 9 1018.5 - 0.0
19/03:00pm 22.7 18.4 -4.4 16 11.5 NNW 9 13 5 7 1019.0 1018.3 0.0
19/02:30pm 22.9 18.7 -4.2 16 11.6 NNE 9 15 5 8 1019.5 - 0.0
19/02:00pm 22.9 19.3 -3.4 17 11.4 NW 6 11 3 6 1019.9 - 0.0
19/01:30pm 23.0 19.4 -3.3 17 11.5 S 6 13 3 7 1020.3 - 0.0
19/01:00pm 22.3 18.7 -3.9 17 11.2 WSW 6 13 3 7 1020.8 - 0.0
19/12:30pm 22.2 17.3 -3.2 18 11.0 ENE 13 19 7 10 1021.4 - 0.0
19/12:00pm 21.7 17.2 -2.9 19 10.6 NE 11 19 6 10 1021.8 1021.1 0.0
19/11:30am 20.9 15.5 -1.0 23 9.8 ENE 17 24 9 13 1022.3 - 0.0
19/11:00am 20.3 14.5 -0.3 25 9.3 NE 20 30 11 16 1022.8 - 0.0
19/10:30am 18.7 12.1 -0.2 28 8.4 NE 24 33 13 18 1023.0 - 0.0
19/10:00am 17.8 10.9 0.0 30 7.9 NE 26 33 14 18 1023.2 - 0.0
19/09:30am 15.7 8.3 -0.9 32 7.1 ENE 28 35 15 19 1023.1 - 0.0
19/09:00am 14.3 6.8 -1.7 33 6.6 ENE 28 33 15 18 1022.9 1022.3 0.0
19/08:30am 12.7 5.3 -3.5 32 6.4 ENE 26 35 14 19 1022.6 - 0.0
19/08:00am 12.4 4.6 -3.8 32 6.3 ENE 28 35 15 19 1022.6 - 0.0
19/07:30am 11.5 4.3 -5.0 31 6.2 ENE 24 32 13 17 1022.4 - 0.0
19/07:00am 12.3 5.4 -6.1 27 6.8 ENE 22 33 12 18 1022.0 - 0.0
19/06:30am 12.5 5.9 -6.5 26 7.0 E 20 30 11 16 1021.9 - 0.0
19/06:00am 11.3 6.9 -5.6 30 6.2 ESE 9 15 5 8 1021.6 1020.9 0.0
19/05:30am 10.5 5.4 -5.1 33 5.8 SE 13 15 7 8 1021.2 - 0.0
19/05:00am 10.2 5.8 -5.7 32 5.8 SE 9 15 5 8 1021.2 - 0.0
19/04:30am 11.2 6.9 -5.3 31 6.1 SSE 9 15 5 8 1021.2 - 0.0
19/04:00am 11.8 6.7 -5.2 30 6.4 SE 13 17 7 9 1021.0 - 0.0
19/03:30am 11.5 6.0 -5.0 31 6.2 SSE 15 19 8 10 1021.2 - 0.0
19/03:00am 12.5 7.4 -5.0 29 6.6 SE 13 17 7 9 1021.4 1020.7 0.0
19/02:30am 12.1 5.7 -4.5 31 6.3 S 20 24 11 13 1021.4 - 0.0
19/02:00am 12.8 7.4 -4.8 29 6.7 SSE 15 20 8 11 1021.6 - 0.0
19/01:30am 14.4 9.0 -4.8 26 7.5 ESE 15 20 8 11 1021.8 - 0.0
19/01:00am 15.1 8.4 -4.2 26 7.6 SE 22 30 12 16 1021.8 - 0.0
19/12:30am 12.3 8.4 -4.8 30 6.5 S 7 9 4 5 1022.0 - 0.0
19/12:00am 14.2 8.4 -4.5 27 7.3 SSE 17 22 9 12 1021.9 1021.2 0.0
 
Date/Time
CST
Temp
°C
App
Temp
°C
Dew
Point
Rel
Hum
%
Delta-T
°C
Wind Press
QNH
hPa
Press
MSL
hPa
Rain
since 9 am
mm
Dir
 
Spd
km/h
Gust
km/h
Spd
kts
Gust
kts
18/11:30pm 14.1 8.7 -4.1 28 7.2 SSE 15 19 8 10 1022.0 - 0.0
18/11:00pm 14.0 8.7 -3.3 30 6.9 SSE 15 17 8 9 1022.0 - 0.0
18/10:30pm 14.0 8.7 -3.3 30 6.9 S 15 19 8 10 1021.9 - 0.0
18/10:00pm 14.5 9.3 -2.8 30 7.0 S 15 19 8 10 1021.9 - 0.0
18/09:30pm 13.6 8.8 -2.8 32 6.6 SSE 13 19 7 10 1021.7 - 0.0
18/09:00pm 14.3 9.9 -2.6 31 6.9 SSE 11 13 6 7 1021.6 1020.9 0.0
18/08:30pm 14.1 9.7 -2.3 32 6.7 SSE 11 13 6 7 1021.4 - 0.0
18/08:00pm 14.3 10.3 -2.6 31 6.9 SE 9 11 5 6 1020.9 - 0.0

Other Formats:

Comma delimited format used in spreadsheet applications
http://www.bom.gov.au/fwo/IDD60801/IDD60801.94321.axf

JavaScript Object Notation format (JSON) in row-major order
http://www.bom.gov.au/fwo/IDD60801/IDD60801.94321.json